Time;durP1;ratioP1;P1;durP2;ratioP2;P2;SDS_P1;SDS_P2;PMS_P1;PMS_P2;Temp;Humidity;BMP_temperature;BMP_pressure;BME280_temperature;BME280_humidity;BME280_pressure;Samples;Min_cycle;Max_cycle;Signal;HPM_P1;HPM_P2
2022/07/01 00:00:20;;;;;;;40.30;23.02;;;;;;;14.05;100.00;101345.53;4991994;28;20023;-33
2022/07/01 00:02:45;;;;;;;43.67;23.10;;;;;;;14.02;100.00;101353.22;4992799;28;20370;-34
2022/07/01 00:05:11;;;;;;;45.53;24.80;;;;;;;13.97;100.00;101352.97;4992572;28;20034;-34
2022/07/01 00:07:36;;;;;;;38.45;22.70;;;;;;;13.89;100.00;101355.78;4992166;28;20032;-35
2022/07/01 00:10:03;;;;;;;39.97;23.88;;;;;;;13.84;100.00;101368.00;4992213;28;20613;-36
2022/07/01 00:12:28;;;;;;;37.28;23.23;;;;;;;13.81;100.00;101371.09;4992461;28;20026;-35
2022/07/01 00:14:54;;;;;;;41.83;23.52;;;;;;;13.81;100.00;101365.69;4992867;28;20556;-35
2022/07/01 00:17:19;;;;;;;43.45;24.60;;;;;;;13.80;100.00;101374.84;4992356;28;20051;-37
2022/07/01 00:19:44;;;;;;;41.83;23.65;;;;;;;13.77;100.00;101377.94;4990633;28;20070;-38
2022/07/01 00:22:10;;;;;;;42.17;23.45;;;;;;;13.73;100.00;101378.50;4992137;28;20533;-37
2022/07/01 00:24:35;;;;;;;47.25;24.38;;;;;;;13.69;100.00;101364.53;4992186;28;20038;-34
2022/07/01 00:27:01;;;;;;;39.80;23.73;;;;;;;13.70;100.00;101360.78;4992379;28;20042;-36
2022/07/01 00:29:26;;;;;;;42.70;24.35;;;;;;;13.70;100.00;101371.59;4992367;28;20046;-35
2022/07/01 00:31:51;;;;;;;44.42;24.20;;;;;;;13.68;100.00;101373.66;4991817;28;20120;-33
2022/07/01 00:34:17;;;;;;;42.65;24.77;;;;;;;13.67;100.00;101374.69;4991678;28;20026;-36
2022/07/01 00:36:42;;;;;;;48.58;23.45;;;;;;;13.69;100.00;101383.47;4992174;28;20096;-36
2022/07/01 00:39:07;;;;;;;44.40;25.13;;;;;;;13.69;100.00;101390.72;4991930;28;20030;-36
2022/07/01 00:41:33;;;;;;;43.05;24.42;;;;;;;13.66;100.00;101391.94;4991538;28;20057;-34
2022/07/01 00:43:58;;;;;;;44.38;24.23;;;;;;;13.65;100.00;101390.25;4991809;28;20046;-35
2022/07/01 00:46:24;;;;;;;41.70;24.10;;;;;;;13.62;100.00;101382.53;4991339;28;20076;-37
2022/07/01 00:48:51;;;;;;;46.15;24.60;;;;;;;13.66;100.00;101388.38;4990041;28;20122;-36
2022/07/01 00:51:18;;;;;;;43.40;23.83;;;;;;;13.63;100.00;101381.50;4990132;28;20065;-37
2022/07/01 00:53:44;;;;;;;43.97;23.65;;;;;;;13.64;100.00;101375.06;4977839;28;20022;-36
2022/07/01 00:56:10;;;;;;;47.33;24.13;;;;;;;13.63;100.00;101370.66;4990485;28;20038;-34
2022/07/01 00:58:36;;;;;;;42.95;23.65;;;;;;;13.60;100.00;101374.59;4991867;28;20069;-34
2022/07/01 01:01:01;;;;;;;43.22;23.85;;;;;;;13.57;100.00;101366.84;4991379;28;20027;-34
2022/07/01 01:03:26;;;;;;;45.47;23.00;;;;;;;13.56;100.00;101367.91;4989513;28;20041;-35
2022/07/01 01:05:54;;;;;;;47.15;22.80;;;;;;;13.58;100.00;101367.69;4991529;28;20042;-37
2022/07/01 01:08:20;;;;;;;44.03;22.95;;;;;;;13.56;100.00;101367.03;4990040;28;20528;-35
2022/07/01 01:10:45;;;;;;;45.45;22.45;;;;;;;13.52;100.00;101361.19;4989984;28;20039;-37
2022/07/01 01:13:12;;;;;;;43.03;21.75;;;;;;;13.52;100.00;101365.75;4990203;28;20525;-35
2022/07/01 01:15:38;;;;;;;39.17;21.13;;;;;;;13.53;100.00;101367.41;4989822;28;20034;-36
2022/07/01 01:18:03;;;;;;;44.42;21.30;;;;;;;13.53;100.00;101359.31;4989137;28;20153;-36
2022/07/01 01:20:36;;;;;;;38.83;20.10;;;;;;;13.53;100.00;101364.72;4990456;28;20031;-37
2022/07/01 01:23:03;;;;;;;36.30;19.95;;;;;;;13.55;100.00;101370.78;4991370;28;20061;-34
2022/07/01 01:25:37;;;;;;;42.63;20.83;;;;;;;13.57;100.00;101374.13;4991595;28;20031;-37
2022/07/01 01:28:03;;;;;;;37.03;20.65;;;;;;;13.57;100.00;101374.13;4989982;28;20549;-35
2022/07/01 01:30:28;;;;;;;40.65;19.73;;;;;;;13.54;100.00;101386.16;4991040;28;20126;-37
2022/07/01 01:32:54;;;;;;;40.00;18.48;;;;;;;13.54;100.00;101386.16;4991092;28;20542;-36
2022/07/01 01:35:20;;;;;;;35.72;18.35;;;;;;;13.63;100.00;101384.19;4991072;28;20065;-34
2022/07/01 01:37:46;;;;;;;40.30;17.77;;;;;;;13.64;100.00;101385.88;4991499;28;20132;-36
2022/07/01 01:40:13;;;;;;;35.33;17.35;;;;;;;13.68;100.00;101387.16;4991172;28;20371;-34
2022/07/01 01:42:39;;;;;;;36.00;16.65;;;;;;;13.77;100.00;101391.47;4991609;28;20117;-34
2022/07/01 01:45:05;;;;;;;30.48;16.73;;;;;;;13.79;100.00;101389.38;4989897;28;20465;-35
2022/07/01 01:47:31;;;;;;;34.80;16.45;;;;;;;13.79;100.00;101393.97;4991291;28;20045;-35
2022/07/01 01:49:57;;;;;;;30.58;16.15;;;;;;;13.76;100.00;101400.59;4990989;28;20058;-34
2022/07/01 01:52:22;;;;;;;27.02;16.15;;;;;;;13.81;100.00;101406.28;4991201;28;20045;-36
2022/07/01 01:54:47;;;;;;;26.50;14.93;;;;;;;13.82;100.00;101412.50;4991626;28;20034;-34
2022/07/01 01:57:14;;;;;;;31.95;15.93;;;;;;;13.84;100.00;101419.41;4991094;28;20367;-36
2022/07/01 01:59:39;;;;;;;36.15;14.20;;;;;;;13.87;100.00;101415.50;4993654;28;20042;-36
2022/07/01 02:02:05;;;;;;;24.77;14.43;;;;;;;13.81;100.00;101408.97;4994537;28;20089;-34
2022/07/01 02:04:30;;;;;;;39.50;15.15;;;;;;;13.82;100.00;101404.41;4994986;28;20458;-34
2022/07/01 02:06:56;;;;;;;36.63;14.95;;;;;;;13.84;100.00;101400.47;4994445;28;20118;-34
2022/07/01 02:09:21;;;;;;;27.80;14.48;;;;;;;13.83;100.00;101397.97;4994726;28;20058;-36
2022/07/01 02:11:46;;;;;;;27.05;13.27;;;;;;;13.78;100.00;101403.13;4993692;28;20030;-35
2022/07/01 02:14:12;;;;;;;27.90;13.63;;;;;;;13.73;100.00;101400.97;4994771;28;20042;-33
2022/07/01 02:16:37;;;;;;;27.85;13.35;;;;;;;13.74;100.00;101402.63;4994446;28;20058;-34
2022/07/01 02:19:03;;;;;;;30.15;14.32;;;;;;;13.72;100.00;101403.88;4994445;28;20070;-34
2022/07/01 02:21:28;;;;;;;25.65;13.10;;;;;;;13.74;100.00;101413.44;4994402;28;20065;-34
2022/07/01 02:23:54;;;;;;;28.38;13.55;;;;;;;13.70;100.00;101409.47;4993006;28;20054;-33
2022/07/01 02:26:19;;;;;;;33.45;13.15;;;;;;;13.70;100.00;101420.28;4992872;28;20042;-34
2022/07/01 02:28:45;;;;;;;25.60;12.70;;;;;;;13.67;100.00;101409.03;4994537;28;20133;-34
2022/07/01 02:31:10;;;;;;;23.55;12.82;;;;;;;13.66;100.00;101416.28;4994010;28;20058;-34
2022/07/01 02:33:36;;;;;;;23.63;12.63;;;;;;;13.67;100.00;101412.56;4994154;28;20038;-34
2022/07/01 02:36:01;;;;;;;22.83;12.52;;;;;;;13.65;100.00;101413.78;4994709;28;20077;-34
2022/07/01 02:38:26;;;;;;;25.60;12.25;;;;;;;13.61;100.00;101419.56;4994211;28;20027;-34
2022/07/01 02:40:52;;;;;;;25.67;11.43;;;;;;;13.64;100.00;101421.06;4994158;28;20039;-34
2022/07/01 02:43:18;;;;;;;26.25;11.32;;;;;;;13.60;100.00;101417.88;4993842;28;20089;-34
2022/07/01 02:45:43;;;;;;;29.38;12.32;;;;;;;13.58;100.00;101425.31;4994198;28;20074;-34
2022/07/01 02:48:09;;;;;;;21.38;11.57;;;;;;;13.57;100.00;101422.81;4993825;28;20473;-34
2022/07/01 02:50:34;;;;;;;16.80;10.27;;;;;;;13.56;100.00;101429.22;4992347;28;20027;-34
2022/07/01 02:52:59;;;;;;;24.15;11.30;;;;;;;13.53;100.00;101419.66;4993733;28;20042;-34
2022/07/01 02:55:25;;;;;;;24.80;10.82;;;;;;;13.49;100.00;101417.50;4993947;28;20446;-37
2022/07/01 02:57:51;;;;;;;25.95;10.00;;;;;;;13.49;100.00;101420.22;4993856;28;20090;-33
2022/07/01 03:00:18;;;;;;;23.27;10.90;;;;;;;13.50;100.00;101430.00;4993090;28;20389;-35
2022/07/01 03:02:43;;;;;;;19.48;10.02;;;;;;;13.48;100.00;101432.91;4993250;28;20038;-34
2022/07/01 03:05:10;;;;;;;18.13;9.50;;;;;;;13.43;100.00;101427.22;4993847;28;20022;-37
2022/07/01 03:07:36;;;;;;;25.90;11.43;;;;;;;13.42;100.00;101424.69;4993698;28;20367;-34
2022/07/01 03:10:05;;;;;;;27.15;11.15;;;;;;;13.42;100.00;101428.22;4992726;28;20040;-35
2022/07/01 03:12:34;;;;;;;23.45;12.40;;;;;;;13.37;100.00;101422.53;4992705;28;20030;-34
2022/07/01 03:15:12;;;;;;;18.75;10.60;;;;;;;13.39;100.00;101425.91;4992968;28;20045;-33
2022/07/01 03:17:40;;;;;;;18.77;10.02;;;;;;;13.37;100.00;101428.78;4990626;28;20103;-36
2022/07/01 03:20:08;;;;;;;25.95;11.30;;;;;;;13.32;100.00;101428.53;4988682;28;20114;-33
2022/07/01 03:22:34;;;;;;;24.05;10.82;;;;;;;13.32;100.00;101424.94;4992758;28;20045;-34
2022/07/01 03:25:00;;;;;;;31.92;11.15;;;;;;;13.30;100.00;101425.16;4993397;28;20058;-33
2022/07/01 03:27:26;;;;;;;27.35;11.95;;;;;;;13.31;100.00;101428.69;4991833;28;20123;-34
2022/07/01 03:29:51;;;;;;;21.40;11.25;;;;;;;13.30;100.00;101427.03;4992539;28;20035;-33
2022/07/01 03:32:16;;;;;;;19.98;11.20;;;;;;;13.29;100.00;101417.22;4992825;28;20121;-35
2022/07/01 03:34:44;;;;;;;25.25;11.00;;;;;;;13.27;100.00;101422.81;4991567;28;20056;-34
2022/07/01 03:37:10;;;;;;;29.10;11.98;;;;;;;13.26;100.00;101423.84;4991895;28;20030;-34
2022/07/01 03:39:36;;;;;;;31.92;12.18;;;;;;;13.26;100.00;101425.66;4992297;28;20542;-34
2022/07/01 03:42:03;;;;;;;18.45;10.95;;;;;;;13.25;100.00;101429.41;4992475;28;20492;-34
2022/07/01 03:44:29;;;;;;;25.38;12.60;;;;;;;13.24;100.00;101433.94;4980008;28;20401;-34
2022/07/01 03:46:55;;;;;;;27.63;12.77;;;;;;;13.23;100.00;101429.59;4978688;28;20058;-33
2022/07/01 03:49:20;;;;;;;27.95;13.30;;;;;;;13.22;100.00;101444.13;4992411;28;20034;-35
2022/07/01 03:51:46;;;;;;;25.00;12.32;;;;;;;13.25;100.00;101440.22;4991153;28;20044;-34
2022/07/01 03:57:10;;;;;;;33.38;13.25;;;;;;;13.31;100.00;101453.84;4982643;28;20034;-34
2022/07/01 03:59:37;;;;;;;25.15;12.25;;;;;;;13.34;100.00;101447.25;4992104;28;20394;-35
2022/07/01 04:02:04;;;;;;;26.83;12.95;;;;;;;13.29;100.00;101450.50;4992618;28;20077;-36
2022/07/01 04:04:29;;;;;;;28.73;13.65;;;;;;;13.30;100.00;101451.34;4983625;28;20035;-34
2022/07/01 04:07:00;;;;;;;24.83;12.90;;;;;;;13.33;100.00;101448.28;4979586;28;20041;-35
2022/07/01 04:09:26;;;;;;;31.48;12.90;;;;;;;13.38;100.00;101452.09;4992582;28;20450;-34
2022/07/01 04:11:51;;;;;;;39.58;13.75;;;;;;;13.38;100.00;101462.06;4990982;28;20042;-34
2022/07/01 04:14:17;;;;;;;22.75;11.90;;;;;;;13.37;100.00;101454.97;4991975;28;20034;-36
2022/07/01 04:16:44;;;;;;;27.67;12.63;;;;;;;13.36;100.00;101456.84;4983711;28;20031;-34
2022/07/01 04:19:09;;;;;;;32.17;12.55;;;;;;;13.34;100.00;101456.19;4972955;28;20090;-34
2022/07/01 04:24:19;;;;;;;22.00;12.30;;;;;;;13.38;100.00;101468.31;4991851;28;20118;-34
2022/07/01 04:26:45;;;;;;;25.85;12.32;;;;;;;13.44;100.00;101476.72;4991725;28;20113;-34
2022/07/01 04:29:10;;;;;;;26.02;11.90;;;;;;;13.41;100.00;101471.69;4992159;28;20117;-34
2022/07/01 04:31:37;;;;;;;29.02;11.85;;;;;;;13.43;100.00;101483.13;4990331;28;20413;-35
2022/07/01 04:34:03;;;;;;;30.92;12.70;;;;;;;13.37;100.00;101474.72;4991154;28;20379;-32
2022/07/01 04:36:28;;;;;;;23.27;12.23;;;;;;;13.37;100.00;101466.63;4991896;28;20050;-32
2022/07/01 04:38:54;;;;;;;24.80;11.90;;;;;;;13.42;100.00;101467.94;4992272;28;20104;-33
2022/07/01 04:44:03;;;;;;;30.60;12.27;;;;;;;13.43;100.00;101481.28;4991891;28;20466;-34
2022/07/01 04:46:28;;;;;;;23.92;11.00;;;;;;;13.45;100.00;101491.91;4992479;28;20038;-35
2022/07/01 04:48:54;;;;;;;26.00;10.82;;;;;;;13.43;100.00;101496.66;4992363;28;20026;-35
2022/07/01 04:51:19;;;;;;;30.15;11.25;;;;;;;13.46;100.00;101490.91;4990589;28;20049;-34
2022/07/01 04:53:45;;;;;;;23.17;10.43;;;;;;;13.48;100.00;101486.13;4984812;28;20513;-33
2022/07/01 04:56:10;;;;;;;23.98;10.60;;;;;;;13.51;100.00;101480.38;4980835;28;20034;-34
2022/07/01 04:58:36;;;;;;;24.98;10.02;;;;;;;13.49;100.00;101477.00;4990377;28;20533;-34
2022/07/01 05:01:01;;;;;;;29.05;11.02;;;;;;;13.47;100.00;101476.34;4992425;28;20028;-34
2022/07/01 05:03:26;;;;;;;25.13;9.93;;;;;;;13.48;100.00;101476.16;4992188;28;20162;-34
2022/07/01 05:05:52;;;;;;;22.33;9.88;;;;;;;13.48;100.00;101492.41;4992455;28;20073;-34
2022/07/01 05:08:17;;;;;;;32.15;10.57;;;;;;;13.55;100.00;101489.78;4992194;28;20470;-34
2022/07/01 05:10:42;;;;;;;27.30;9.93;;;;;;;13.59;100.00;101482.97;4992253;28;20058;-34
2022/07/01 05:13:08;;;;;;;24.30;9.50;;;;;;;13.75;100.00;101480.06;4991364;28;20023;-34
2022/07/01 05:15:33;;;;;;;31.10;9.55;;;;;;;13.79;100.00;101492.19;4991712;28;20031;-34
2022/07/01 05:23:28;;;;;;;21.88;8.45;;;;;;;13.90;99.82;101515.25;4991379;28;20045;-34
2022/07/01 05:25:53;;;;;;;25.48;8.23;;;;;;;13.97;99.67;101526.16;4989789;28;20030;-34
2022/07/01 05:28:18;;;;;;;21.60;8.43;;;;;;;14.01;99.19;101516.66;4990746;28;20034;-34
2022/07/01 05:30:44;;;;;;;25.45;7.32;;;;;;;14.10;98.56;101511.97;4989329;28;20026;-34
2022/07/01 05:33:10;;;;;;;23.98;7.70;;;;;;;14.11;98.02;101508.22;4991227;28;20378;-34
2022/07/01 05:35:36;;;;;;;29.02;8.20;;;;;;;14.22;97.72;101514.00;4994368;28;20378;-34
2022/07/01 05:38:01;;;;;;;17.52;7.38;;;;;;;14.26;97.19;101515.28;4994409;28;20040;-35
2022/07/01 05:40:26;;;;;;;23.33;7.32;;;;;;;14.30;97.11;101520.31;4994315;28;20049;-34
2022/07/01 05:42:52;;;;;;;39.35;7.40;;;;;;;14.23;97.06;101522.94;4994539;28;20426;-34
2022/07/01 05:45:18;;;;;;;24.02;6.82;;;;;;;14.30;97.42;101521.19;4993881;28;20027;-33
2022/07/01 05:47:43;;;;;;;27.23;6.95;;;;;;;14.32;97.24;101519.09;4994326;28;20190;-34
2022/07/01 05:50:09;;;;;;;29.23;7.13;;;;;;;14.28;96.69;101515.09;4993559;28;20496;-34
2022/07/01 05:52:34;;;;;;;15.90;6.30;;;;;;;14.23;96.76;101512.13;4994234;28;20412;-34
2022/07/01 05:54:59;;;;;;;18.92;6.63;;;;;;;14.16;96.88;101519.31;4993925;28;20477;-33
2022/07/01 05:57:24;;;;;;;22.08;6.18;;;;;;;14.08;97.46;101517.53;4994137;28;20034;-34
2022/07/01 05:59:50;;;;;;;24.65;7.32;;;;;;;14.10;97.84;101522.78;4994112;28;20026;-35
2022/07/01 06:02:15;;;;;;;16.60;6.18;;;;;;;14.03;97.86;101514.56;4992620;28;20092;-35
2022/07/01 06:04:43;;;;;;;22.13;6.38;;;;;;;14.08;98.36;101514.84;4993760;28;20029;-34
2022/07/01 06:07:08;;;;;;;21.40;7.10;;;;;;;14.22;98.54;101505.88;4993999;28;20022;-34
2022/07/01 06:09:34;;;;;;;21.67;6.90;;;;;;;14.50;98.78;101511.38;4994255;28;20034;-35
2022/07/01 06:11:59;;;;;;;22.10;7.05;;;;;;;14.65;97.40;101508.66;4993869;28;20030;-34
2022/07/01 06:14:24;;;;;;;19.73;6.47;;;;;;;14.65;95.07;101511.38;4993480;28;20188;-37
2022/07/01 06:16:50;;;;;;;22.92;6.40;;;;;;;14.81;94.73;101512.16;4993677;28;20022;-36
2022/07/01 06:19:15;;;;;;;25.23;6.70;;;;;;;14.83;93.75;101520.94;4993697;28;20423;-35
2022/07/01 06:21:40;;;;;;;20.90;6.95;;;;;;;14.87;93.43;101517.63;4993927;28;20030;-34
2022/07/01 06:24:06;;;;;;;29.92;7.15;;;;;;;15.00;93.69;101516.91;4992240;28;20046;-35
2022/07/01 06:26:31;;;;;;;18.58;6.45;;;;;;;15.29;93.63;101531.34;4993824;28;20030;-34
2022/07/01 06:28:56;;;;;;;20.00;6.43;;;;;;;15.42;90.54;101519.78;4994230;28;20207;-35
2022/07/01 06:31:23;;;;;;;18.23;5.95;;;;;;;15.49;89.02;101528.81;4993846;28;20437;-35
2022/07/01 06:33:49;;;;;;;15.38;4.78;;;;;;;15.83;88.19;101525.31;4994010;28;20489;-34
2022/07/01 06:36:14;;;;;;;23.92;5.38;;;;;;;16.12;86.13;101526.09;4992820;28;20054;-33
2022/07/01 06:38:39;;;;;;;22.23;5.00;;;;;;;16.22;85.72;101537.41;4992950;28;20026;-35
2022/07/01 06:43:49;;;;;;;16.85;5.30;;;;;;;15.75;85.14;101517.31;4992412;28;20081;-34
2022/07/01 06:46:14;;;;;;;17.10;4.50;;;;;;;15.50;86.34;101516.91;4992005;28;20102;-34
2022/07/01 06:48:39;;;;;;;19.48;4.28;;;;;;;15.52;87.55;101526.53;4992207;28;20109;-35
2022/07/01 06:51:05;;;;;;;23.08;5.05;;;;;;;15.47;87.73;101523.56;4991924;28;20030;-34
2022/07/01 06:53:30;;;;;;;15.57;5.07;;;;;;;15.54;87.76;101521.75;4992199;28;20077;-35
2022/07/01 06:55:57;;;;;;;11.82;4.15;;;;;;;15.83;86.90;101509.03;4992431;28;20393;-34
2022/07/01 06:58:22;;;;;;;17.98;4.95;;;;;;;16.17;84.96;101510.84;4992641;28;20449;-33
2022/07/01 07:00:47;;;;;;;16.75;4.35;;;;;;;16.16;83.41;101516.47;4992419;28;20027;-36
2022/07/01 07:03:13;;;;;;;22.40;5.03;;;;;;;15.79;83.78;101526.72;4992061;28;20033;-34
2022/07/01 07:05:38;;;;;;;13.65;3.53;;;;;;;15.73;84.41;101520.22;4992193;28;20025;-33
2022/07/01 07:08:04;;;;;;;12.80;3.40;;;;;;;15.39;85.82;101536.44;4992206;28;20097;-35
2022/07/01 07:10:29;;;;;;;17.55;3.47;;;;;;;15.79;85.52;101533.00;4992794;28;20436;-33
2022/07/01 07:12:55;;;;;;;15.00;3.72;;;;;;;16.53;83.30;101531.44;4992048;28;20030;-37
2022/07/01 07:15:20;;;;;;;18.63;3.95;;;;;;;16.46;82.46;101531.44;4990678;28;20037;-34
2022/07/01 07:17:45;;;;;;;16.35;3.38;;;;;;;16.12;83.10;101534.22;4991777;28;20031;-34
2022/07/01 07:20:11;;;;;;;17.95;3.90;;;;;;;15.96;83.63;101536.25;4992164;28;20110;-34
2022/07/01 07:22:36;;;;;;;12.38;3.08;;;;;;;15.62;85.08;101536.22;4991852;28;20038;-35
2022/07/01 07:25:02;;;;;;;14.35;3.03;;;;;;;15.24;86.54;101541.94;4991719;28;20397;-34
2022/07/01 07:27:27;;;;;;;16.13;2.85;;;;;;;15.43;86.56;101538.56;4992186;28;20018;-35
2022/07/01 07:29:53;;;;;;;11.75;2.50;;;;;;;15.86;86.17;101530.31;4991861;28;20041;-35
2022/07/01 07:32:19;;;;;;;18.05;2.83;;;;;;;16.80;83.32;101545.16;4991685;28;20026;-34
2022/07/01 07:34:44;;;;;;;11.35;2.15;;;;;;;17.46;77.65;101556.09;4953202;28;1081291;-35
2022/07/01 07:37:09;;;;;;;10.75;2.78;;;;;;;17.14;77.92;101556.91;4992820;28;20038;-33
2022/07/01 07:39:35;;;;;;;19.10;3.22;;;;;;;16.49;84.13;101568.22;4992702;28;20018;-40
2022/07/01 07:42:00;;;;;;;18.10;2.83;;;;;;;15.73;87.66;101566.38;4998027;28;20058;-43
2022/07/01 07:44:26;;;;;;;16.98;3.08;;;;;;;15.38;91.05;101573.59;4996357;28;20134;-43
2022/07/01 07:46:51;;;;;;;10.15;3.22;;;;;;;15.10;93.66;101566.22;4994501;28;20391;-42
2022/07/01 07:49:16;;;;;;;13.35;3.63;;;;;;;14.79;95.42;101568.41;4994174;28;20137;-45
2022/07/01 07:51:42;;;;;;;20.00;3.88;;;;;;;14.67;96.93;101566.22;4992755;28;20042;-42
2022/07/01 07:54:07;;;;;;;20.80;4.30;;;;;;;14.48;98.24;101566.78;4994415;28;20508;-39
2022/07/01 07:56:33;;;;;;;18.95;4.35;;;;;;;14.42;99.67;101564.84;4993341;28;20339;-46
2022/07/01 07:58:58;;;;;;;10.90;3.80;;;;;;;14.49;100.00;101568.47;4991348;28;20523;-41
2022/07/01 08:01:23;;;;;;;18.35;4.03;;;;;;;14.45;100.00;101578.81;4991456;28;20034;-36
2022/07/01 08:03:49;;;;;;;10.23;3.33;;;;;;;14.75;100.00;101572.56;4991702;28;20113;-33
2022/07/01 08:06:14;;;;;;;16.52;4.03;;;;;;;14.79;100.00;101569.25;4991592;28;20097;-43
2022/07/01 08:08:39;;;;;;;11.48;2.70;;;;;;;15.01;99.50;101567.41;4991310;28;20022;-34
2022/07/01 08:11:05;;;;;;;14.20;2.38;;;;;;;15.21;97.88;101567.59;4991526;28;20048;-34
2022/07/01 08:13:31;;;;;;;11.38;3.03;;;;;;;15.65;96.64;101574.63;4992075;28;20110;-32
2022/07/01 08:15:57;;;;;;;11.70;2.38;;;;;;;16.18;93.79;101590.44;4992485;28;20038;-32
2022/07/01 08:18:22;;;;;;;9.70;2.35;;;;;;;15.83;90.27;101582.31;4990500;28;20026;-34
2022/07/01 08:20:50;;;;;;;12.57;2.40;;;;;;;15.71;90.14;101589.31;4992163;28;20390;-32
2022/07/01 08:23:16;;;;;;;13.05;2.40;;;;;;;16.14;91.28;101584.59;4991850;28;20038;-32
2022/07/01 08:25:41;;;;;;;11.98;2.15;;;;;;;16.59;89.26;101578.72;4992459;28;20036;-32
2022/07/01 08:28:06;;;;;;;9.60;2.17;;;;;;;17.35;86.75;101581.19;4992555;28;20023;-32
2022/07/01 08:30:32;;;;;;;10.23;2.30;;;;;;;18.60;84.56;101595.63;4992121;28;20038;-33
2022/07/01 08:32:57;;;;;;;10.75;1.65;;;;;;;19.44;77.59;101582.72;4992382;28;20030;-32
2022/07/01 08:35:23;;;;;;;7.05;1.63;;;;;;;20.02;74.19;101594.41;4992561;28;20042;-32
2022/07/01 08:37:48;;;;;;;11.50;2.28;;;;;;;20.44;73.20;101592.66;4992855;28;20081;-33
2022/07/01 08:40:14;;;;;;;10.18;1.50;;;;;;;19.90;69.85;101603.31;4992713;28;20030;-33
2022/07/01 08:42:39;;;;;;;9.80;1.67;;;;;;;18.97;70.89;101595.03;4992873;28;20022;-33
2022/07/01 08:45:05;;;;;;;11.38;1.80;;;;;;;18.19;73.48;101605.00;4992047;28;20338;-34
2022/07/01 08:47:30;;;;;;;7.93;1.67;;;;;;;17.70;77.47;101600.88;4992585;28;20030;-34
2022/07/01 08:49:59;;;;;;;11.05;2.30;;;;;;;17.22;78.56;101609.22;4992445;28;20073;-34
2022/07/01 08:52:25;;;;;;;20.63;2.13;;;;;;;17.28;80.62;101604.84;4991955;28;20106;-34
2022/07/01 08:54:50;;;;;;;17.50;1.98;;;;;;;17.06;80.84;101615.03;4992098;28;20117;-34
2022/07/01 08:57:21;;;;;;;11.30;2.20;;;;;;;16.78;80.64;101624.19;4991917;28;20057;-33
2022/07/01 09:00:00;;;;;;;10.52;2.00;;;;;;;17.24;84.01;101618.00;4992171;28;20041;-33
2022/07/01 09:02:27;;;;;;;11.23;1.95;;;;;;;17.23;77.02;101629.09;4991767;28;20037;-34
2022/07/01 09:05:05;;;;;;;7.55;1.17;;;;;;;17.19;70.68;101625.94;4991569;28;20110;-35
2022/07/01 09:07:33;;;;;;;5.60;0.98;;;;;;;16.91;68.87;101633.44;4991431;28;20030;-35
2022/07/01 09:10:12;;;;;;;8.40;1.38;;;;;;;17.03;68.89;101640.75;4994616;28;20038;-34
2022/07/01 09:12:41;;;;;;;5.22;1.10;;;;;;;16.79;66.83;101634.00;4995746;28;20037;-34
2022/07/01 09:15:26;;;;;;;5.88;1.10;;;;;;;16.62;67.99;101640.81;4995679;28;20034;-34
2022/07/01 09:18:09;;;;;;;8.70;1.65;;;;;;;16.46;69.93;101652.88;4995601;28;20110;-33
2022/07/01 09:20:37;;;;;;;10.07;1.52;;;;;;;16.19;70.94;101646.44;4995280;28;20026;-33
2022/07/01 09:23:05;;;;;;;6.80;0.95;;;;;;;16.11;72.40;101660.16;4994992;28;20397;-32
2022/07/01 09:25:34;;;;;;;;;;;;;;;16.19;74.85;101657.28;4995489;28;20033;-34
2022/07/01 09:28:06;;;;;;;23.60;1.88;;;;;;;15.88;73.05;101661.28;4995005;28;19906;-33
2022/07/01 09:30:35;;;;;;;6.07;1.65;;;;;;;15.54;73.78;101654.69;4994707;28;20022;-34
2022/07/01 09:33:08;;;;;;;9.57;1.30;;;;;;;15.51;76.59;101671.38;4994680;28;20022;-35
2022/07/01 09:35:34;;;;;;;5.68;1.30;;;;;;;15.29;77.89;101666.94;4994263;28;20173;-36
2022/07/01 09:37:59;;;;;;;7.40;1.85;;;;;;;15.19;80.21;101659.13;4994356;28;20074;-32
2022/07/01 09:40:25;;;;;;;9.80;1.67;;;;;;;15.11;83.42;101667.38;4993415;28;20473;-35
2022/07/01 09:42:50;;;;;;;4.50;1.20;;;;;;;14.84;84.49;101663.53;4994160;28;20234;-37
2022/07/01 09:45:16;;;;;;;7.78;1.90;;;;;;;14.73;86.14;101656.72;4995108;28;20411;-42
2022/07/01 09:47:44;;;;;;;4.82;1.40;;;;;;;14.95;87.75;101652.19;4994038;28;20030;-35
2022/07/01 09:50:10;;;;;;;5.00;1.60;;;;;;;15.50;88.65;101656.09;4993724;28;20084;-32
2022/07/01 09:52:36;;;;;;;7.20;1.70;;;;;;;16.49;87.98;101651.63;4993850;28;20018;-37
2022/07/01 09:55:01;;;;;;;7.95;1.50;;;;;;;17.61;81.80;101651.09;4993602;28;20030;-34
2022/07/01 09:57:27;;;;;;;9.93;1.42;;;;;;;18.58;75.75;101654.97;4994213;28;20486;-34
2022/07/01 09:59:52;;;;;;;7.70;1.67;;;;;;;19.53;73.77;101652.34;4994452;28;20042;-34
2022/07/01 10:02:19;;;;;;;6.68;1.52;;;;;;;20.26;69.67;101655.53;4994772;28;20068;-32
2022/07/01 10:05:02;;;;;;;9.05;1.88;;;;;;;21.31;69.39;101648.97;4995491;28;20052;-32
2022/07/01 10:08:05;;;;;;;11.32;2.08;;;;;;;21.80;64.09;101652.41;4993926;28;20030;-32
2022/07/01 10:10:43;;;;;;;12.02;2.17;;;;;;;22.04;61.62;101658.75;4995828;28;20030;-33
2022/07/01 10:13:10;;;;;;;9.85;1.90;;;;;;;22.48;62.59;101653.69;4995319;28;20058;-33
2022/07/01 10:15:35;;;;;;;12.05;2.03;;;;;;;22.74;61.40;101658.63;4996845;28;20034;-33
2022/07/01 10:18:02;;;;;;;11.60;2.30;;;;;;;20.97;59.00;101659.56;4995764;28;20470;-33
2022/07/01 10:20:29;;;;;;;8.48;1.90;;;;;;;20.27;65.22;101660.75;4997067;28;20402;-32
2022/07/01 10:23:06;;;;;;;13.35;1.77;;;;;;;19.36;65.47;101664.06;4997031;28;20234;-33
2022/07/01 10:25:33;;;;;;;16.33;2.00;;;;;;;18.97;65.34;101658.59;4996606;28;20084;-32
2022/07/01 10:28:22;;;;;;;15.30;2.38;;;;;;;18.61;65.79;101667.34;4996126;28;20037;-32
2022/07/01 10:31:00;;;;;;;12.07;1.80;;;;;;;18.61;66.72;101670.88;4996053;28;20493;-32
2022/07/01 10:33:30;;;;;;;7.75;1.40;;;;;;;18.26;64.04;101669.53;4996318;28;20038;-32
2022/07/01 10:36:03;;;;;;;9.10;2.05;;;;;;;17.94;65.98;101663.94;4995473;28;20052;-31
2022/07/01 10:38:28;;;;;;;13.18;2.17;;;;;;;18.27;69.58;101671.19;4996513;28;20027;-31
2022/07/01 10:40:54;;;;;;;13.82;1.95;;;;;;;18.58;65.97;101671.31;4996846;28;20089;-32
2022/07/01 10:43:36;;;;;;;7.60;1.75;;;;;;;18.54;62.57;101672.81;4995683;28;20434;-32
2022/07/01 10:46:02;;;;;;;7.78;1.92;;;;;;;18.50;62.50;101671.56;4995774;28;20104;-31
2022/07/01 10:48:31;;;;;;;7.32;1.70;;;;;;;18.57;63.17;101671.56;4996019;28;20038;-32
2022/07/01 10:50:56;;;;;;;18.17;2.72;;;;;;;19.13;64.46;101675.53;4995533;28;20027;-32
2022/07/01 10:53:21;;;;;;;9.00;1.77;;;;;;;19.97;61.24;101687.16;4995558;28;20493;-32
2022/07/01 10:55:50;;;;;;;11.38;1.88;;;;;;;20.23;58.58;101675.97;4995820;28;20442;-33
2022/07/01 10:58:18;;;;;;;10.63;1.88;;;;;;;20.78;56.79;101678.72;4995770;28;20027;-33
2022/07/01 11:00:45;;;;;;;7.22;1.58;;;;;;;21.22;56.57;101684.03;4995566;28;20071;-33
2022/07/01 11:03:13;;;;;;;7.30;1.67;;;;;;;20.65;53.79;101681.63;4995582;28;20030;-33
2022/07/01 11:05:39;;;;;;;8.23;1.38;;;;;;;20.51;57.40;101678.19;4995777;28;20280;-33
2022/07/01 11:08:06;;;;;;;9.77;2.17;;;;;;;20.16;57.72;101692.41;4995361;28;20425;-32
2022/07/01 11:10:32;;;;;;;8.13;1.30;;;;;;;19.58;55.34;101700.03;4993566;28;20023;-33
2022/07/01 11:12:57;;;;;;;6.97;1.20;;;;;;;19.12;58.13;101679.31;4994088;28;20466;-34
2022/07/01 11:15:22;;;;;;;13.98;1.83;;;;;;;19.04;62.45;101677.69;4993027;28;20033;-33
2022/07/01 11:17:49;;;;;;;7.93;1.40;;;;;;;19.41;62.27;101692.38;4976369;28;20027;-35
2022/07/01 11:20:15;;;;;;;6.95;1.27;;;;;;;19.62;59.24;101682.97;4994031;28;20565;-35
2022/07/01 11:22:40;;;;;;;8.75;1.50;;;;;;;19.71;59.99;101686.28;4994016;28;20062;-33
2022/07/01 11:25:08;;;;;;;10.35;1.52;;;;;;;19.60;60.00;101670.59;4992697;28;20117;-34